sensor_id;sensor_type;location;lat;lon;timestamp;pressure;altitude;pressure_sealevel;temperature;humidity
54876;BME280;40764;48.472;8.166;2023-02-17T00:03:20;99145.63;;;8.02;79.33
54876;BME280;40764;48.472;8.166;2023-02-17T00:09:20;99149.00;;;8.10;79.56
54876;BME280;40764;48.472;8.166;2023-02-17T00:15:21;99152.53;;;8.10;78.84
54876;BME280;40764;48.472;8.166;2023-02-17T00:21:23;99148.75;;;8.11;79.27
54876;BME280;40764;48.472;8.166;2023-02-17T00:27:24;99150.00;;;8.03;78.87
54876;BME280;40764;48.472;8.166;2023-02-17T00:33:24;99146.97;;;8.00;79.17
54876;BME280;40764;48.472;8.166;2023-02-17T00:39:24;99145.94;;;8.06;79.02
54876;BME280;40764;48.472;8.166;2023-02-17T00:45:25;99155.69;;;8.02;79.04
54876;BME280;40764;48.472;8.166;2023-02-17T00:51:25;99147.69;;;7.90;79.79
54876;BME280;40764;48.472;8.166;2023-02-17T00:57:32;99142.09;;;8.02;79.22
54876;BME280;40764;48.472;8.166;2023-02-17T01:03:32;99147.03;;;8.05;78.37
54876;BME280;40764;48.472;8.166;2023-02-17T01:09:32;99137.38;;;7.92;78.55
54876;BME280;40764;48.472;8.166;2023-02-17T01:15:37;99140.28;;;7.86;78.35
54876;BME280;40764;48.472;8.166;2023-02-17T01:21:38;99131.81;;;7.82;78.15
54876;BME280;40764;48.472;8.166;2023-02-17T01:27:39;99138.75;;;7.73;78.70
54876;BME280;40764;48.472;8.166;2023-02-17T01:33:39;99142.38;;;7.57;79.06
54876;BME280;40764;48.472;8.166;2023-02-17T01:39:39;99147.00;;;7.56;80.02
54876;BME280;40764;48.472;8.166;2023-02-17T01:45:53;99134.59;;;7.65;79.10
54876;BME280;40764;48.472;8.166;2023-02-17T01:52:21;99126.44;;;7.65;79.80
54876;BME280;40764;48.472;8.166;2023-02-17T01:58:24;99121.31;;;7.47;79.53
54876;BME280;40764;48.472;8.166;2023-02-17T02:04:29;99110.16;;;7.49;79.30
54876;BME280;40764;48.472;8.166;2023-02-17T02:10:31;99109.50;;;7.58;79.56
54876;BME280;40764;48.472;8.166;2023-02-17T02:16:42;99104.09;;;7.63;79.30
54876;BME280;40764;48.472;8.166;2023-02-17T02:29:12;99105.28;;;7.72;78.34
54876;BME280;40764;48.472;8.166;2023-02-17T02:41:27;99087.72;;;7.58;79.17
54876;BME280;40764;48.472;8.166;2023-02-17T02:53:43;99082.63;;;7.67;78.83
54876;BME280;40764;48.472;8.166;2023-02-17T03:00:19;99090.53;;;7.68;79.41
54876;BME280;40764;48.472;8.166;2023-02-17T03:06:55;99085.09;;;7.68;79.36
54876;BME280;40764;48.472;8.166;2023-02-17T03:13:00;99089.78;;;7.73;79.64
54876;BME280;40764;48.472;8.166;2023-02-17T03:19:01;99067.66;;;7.64;80.15
54876;BME280;40764;48.472;8.166;2023-02-17T03:25:02;99070.06;;;7.61;80.80
54876;BME280;40764;48.472;8.166;2023-02-17T03:31:02;99066.81;;;7.64;80.76
54876;BME280;40764;48.472;8.166;2023-02-17T03:37:05;99069.50;;;7.59;81.09
54876;BME280;40764;48.472;8.166;2023-02-17T03:43:06;99079.91;;;7.67;81.19
54876;BME280;40764;48.472;8.166;2023-02-17T03:49:06;99062.47;;;7.63;81.56
54876;BME280;40764;48.472;8.166;2023-02-17T03:55:07;99075.81;;;7.64;81.99
54876;BME280;40764;48.472;8.166;2023-02-17T04:01:09;99079.88;;;7.62;83.29
54876;BME280;40764;48.472;8.166;2023-02-17T04:07:09;99081.97;;;7.55;84.29
54876;BME280;40764;48.472;8.166;2023-02-17T04:13:10;99080.59;;;7.52;85.59
54876;BME280;40764;48.472;8.166;2023-02-17T04:19:10;99078.03;;;7.45;87.54
54876;BME280;40764;48.472;8.166;2023-02-17T04:25:10;99083.47;;;7.45;89.25
54876;BME280;40764;48.472;8.166;2023-02-17T04:31:11;99087.56;;;7.48;89.45
54876;BME280;40764;48.472;8.166;2023-02-17T04:37:11;99081.50;;;7.41;90.04
54876;BME280;40764;48.472;8.166;2023-02-17T04:43:11;99093.66;;;7.55;90.86
54876;BME280;40764;48.472;8.166;2023-02-17T04:49:12;99093.97;;;7.59;92.92
54876;BME280;40764;48.472;8.166;2023-02-17T04:55:12;99081.50;;;7.63;93.69
54876;BME280;40764;48.472;8.166;2023-02-17T05:01:12;99091.72;;;7.77;94.49
54876;BME280;40764;48.472;8.166;2023-02-17T05:07:13;99083.25;;;7.74;94.68
54876;BME280;40764;48.472;8.166;2023-02-17T05:13:13;99071.53;;;7.73;95.64
54876;BME280;40764;48.472;8.166;2023-02-17T05:19:14;99084.06;;;7.74;96.53
54876;BME280;40764;48.472;8.166;2023-02-17T05:25:14;99088.75;;;7.79;97.10
54876;BME280;40764;48.472;8.166;2023-02-17T05:31:14;99083.81;;;7.76;97.59
54876;BME280;40764;48.472;8.166;2023-02-17T05:37:15;99081.09;;;7.76;98.20
54876;BME280;40764;48.472;8.166;2023-02-17T05:43:15;99092.13;;;7.86;98.34
54876;BME280;40764;48.472;8.166;2023-02-17T05:49:16;99091.28;;;7.86;97.92
54876;BME280;40764;48.472;8.166;2023-02-17T05:55:16;99088.59;;;7.64;99.07
54876;BME280;40764;48.472;8.166;2023-02-17T06:01:16;99091.09;;;7.70;100.00
54876;BME280;40764;48.472;8.166;2023-02-17T06:07:17;99102.31;;;7.74;100.00
54876;BME280;40764;48.472;8.166;2023-02-17T06:13:17;99105.91;;;7.80;100.00
54876;BME280;40764;48.472;8.166;2023-02-17T06:19:18;99126.94;;;7.84;100.00
54876;BME280;40764;48.472;8.166;2023-02-17T06:25:18;99127.75;;;7.85;100.00
54876;BME280;40764;48.472;8.166;2023-02-17T06:31:19;99127.56;;;7.91;100.00
54876;BME280;40764;48.472;8.166;2023-02-17T06:37:19;99132.69;;;7.88;100.00
54876;BME280;40764;48.472;8.166;2023-02-17T06:43:20;99141.88;;;7.82;100.00
54876;BME280;40764;48.472;8.166;2023-02-17T06:49:20;99147.88;;;7.84;100.00
54876;BME280;40764;48.472;8.166;2023-02-17T06:55:20;99158.16;;;8.03;100.00
54876;BME280;40764;48.472;8.166;2023-02-17T07:01:25;99165.66;;;7.91;100.00
54876;BME280;40764;48.472;8.166;2023-02-17T07:07:25;99164.69;;;8.02;100.00
54876;BME280;40764;48.472;8.166;2023-02-17T07:13:25;99167.41;;;8.02;100.00
54876;BME280;40764;48.472;8.166;2023-02-17T07:19:26;99174.47;;;7.98;100.00
54876;BME280;40764;48.472;8.166;2023-02-17T07:25:26;99174.81;;;8.07;100.00
54876;BME280;40764;48.472;8.166;2023-02-17T07:31:27;99193.13;;;8.33;98.49
54876;BME280;40764;48.472;8.166;2023-02-17T07:37:27;99196.75;;;8.39;96.88
54876;BME280;40764;48.472;8.166;2023-02-17T07:43:27;99186.50;;;8.29;97.37
54876;BME280;40764;48.472;8.166;2023-02-17T07:49:28;99182.78;;;8.35;97.53
54876;BME280;40764;48.472;8.166;2023-02-17T07:55:28;99182.66;;;8.47;96.62
54876;BME280;40764;48.472;8.166;2023-02-17T08:01:29;99189.34;;;8.66;95.73
54876;BME280;40764;48.472;8.166;2023-02-17T08:07:29;99199.00;;;8.79;95.20
54876;BME280;40764;48.472;8.166;2023-02-17T08:13:32;99208.88;;;8.85;95.17
54876;BME280;40764;48.472;8.166;2023-02-17T08:19:32;99201.47;;;9.13;92.70
54876;BME280;40764;48.472;8.166;2023-02-17T08:25:34;99218.44;;;9.25;91.83
54876;BME280;40764;48.472;8.166;2023-02-17T08:31:36;99215.81;;;9.35;89.70
54876;BME280;40764;48.472;8.166;2023-02-17T08:37:37;99232.00;;;9.52;88.45
54876;BME280;40764;48.472;8.166;2023-02-17T08:43:37;99213.41;;;9.44;89.50
54876;BME280;40764;48.472;8.166;2023-02-17T08:49:39;99225.00;;;9.61;88.03
54876;BME280;40764;48.472;8.166;2023-02-17T08:55:39;99229.97;;;9.79;86.49
54876;BME280;40764;48.472;8.166;2023-02-17T09:01:40;99212.50;;;9.80;85.20
54876;BME280;40764;48.472;8.166;2023-02-17T09:07:41;99227.34;;;9.94;84.90
54876;BME280;40764;48.472;8.166;2023-02-17T09:13:42;99222.69;;;9.95;84.94
54876;BME280;40764;48.472;8.166;2023-02-17T09:19:43;99249.22;;;10.05;86.05
54876;BME280;40764;48.472;8.166;2023-02-17T09:25:44;99255.78;;;10.09;86.33
54876;BME280;40764;48.472;8.166;2023-02-17T09:31:44;99250.84;;;9.96;89.24
54876;BME280;40764;48.472;8.166;2023-02-17T09:37:45;99255.16;;;9.86;90.39
54876;BME280;40764;48.472;8.166;2023-02-17T09:43:45;99250.47;;;9.82;93.12
54876;BME280;40764;48.472;8.166;2023-02-17T09:49:50;99255.91;;;9.77;94.71
54876;BME280;40764;48.472;8.166;2023-02-17T09:55:54;99257.78;;;9.71;95.19
54876;BME280;40764;48.472;8.166;2023-02-17T10:01:57;99273.00;;;9.57;97.51
54876;BME280;40764;48.472;8.166;2023-02-17T10:08:05;99283.47;;;9.75;97.56
54876;BME280;40764;48.472;8.166;2023-02-17T10:20:40;99281.47;;;10.08;93.23
54876;BME280;40764;48.472;8.166;2023-02-17T10:33:00;99276.91;;;10.18;93.14
54876;BME280;40764;48.472;8.166;2023-02-17T10:39:09;99262.47;;;10.28;92.71
54876;BME280;40764;48.472;8.166;2023-02-17T10:51:24;99269.59;;;10.34;91.86
54876;BME280;40764;48.472;8.166;2023-02-17T10:57:27;99277.53;;;10.36;92.05
54876;BME280;40764;48.472;8.166;2023-02-17T11:03:32;99264.41;;;10.33;91.93
54876;BME280;40764;48.472;8.166;2023-02-17T11:09:33;99262.50;;;10.33;92.27
54876;BME280;40764;48.472;8.166;2023-02-17T11:15:41;99256.75;;;10.40;91.55
54876;BME280;40764;48.472;8.166;2023-02-17T11:21:42;99251.56;;;10.38;91.88
54876;BME280;40764;48.472;8.166;2023-02-17T11:27:49;99248.06;;;10.53;90.95
54876;BME280;40764;48.472;8.166;2023-02-17T11:33:49;99246.72;;;10.55;91.04
54876;BME280;40764;48.472;8.166;2023-02-17T11:39:51;99234.41;;;10.48;91.38
54876;BME280;40764;48.472;8.166;2023-02-17T12:11:14;99228.16;;;10.73;90.53
54876;BME280;40764;48.472;8.166;2023-02-17T12:18:20;99235.28;;;10.79;90.53
54876;BME280;40764;48.472;8.166;2023-02-17T12:24:08;99222.41;;;10.84;90.39
54876;BME280;40764;48.472;8.166;2023-02-17T12:30:42;99212.03;;;10.92;89.75
54876;BME280;40764;48.472;8.166;2023-02-17T12:36:47;99210.38;;;10.85;90.21
54876;BME280;40764;48.472;8.166;2023-02-17T12:42:59;99204.66;;;11.02;89.15
54876;BME280;40764;48.472;8.166;2023-02-17T12:49:20;99209.28;;;11.12;88.81
54876;BME280;40764;48.472;8.166;2023-02-17T12:55:40;99199.72;;;11.20;88.58
54876;BME280;40764;48.472;8.166;2023-02-17T13:02:01;99196.97;;;11.20;88.00
54876;BME280;40764;48.472;8.166;2023-02-17T13:08:10;99198.06;;;11.24;88.11
54876;BME280;40764;48.472;8.166;2023-02-17T13:14:27;99189.88;;;11.29;87.23
54876;BME280;40764;48.472;8.166;2023-02-17T13:20:52;99190.13;;;11.32;87.32
54876;BME280;40764;48.472;8.166;2023-02-17T13:26:53;99183.00;;;11.36;87.99
54876;BME280;40764;48.472;8.166;2023-02-17T13:33:28;99178.59;;;11.40;86.57
54876;BME280;40764;48.472;8.166;2023-02-17T13:39:32;99169.84;;;11.43;87.31
54876;BME280;40764;48.472;8.166;2023-02-17T13:45:40;99171.97;;;11.67;86.52
54876;BME280;40764;48.472;8.166;2023-02-17T13:52:10;99172.22;;;11.75;86.22
54876;BME280;40764;48.472;8.166;2023-02-17T13:58:10;99176.59;;;11.82;85.79
54876;BME280;40764;48.472;8.166;2023-02-17T14:04:19;99172.97;;;11.96;84.93
54876;BME280;40764;48.472;8.166;2023-02-17T14:10:25;99166.31;;;12.13;83.70
54876;BME280;40764;48.472;8.166;2023-02-17T14:16:29;99170.88;;;12.32;82.87
54876;BME280;40764;48.472;8.166;2023-02-17T14:22:33;99165.34;;;12.37;82.29
54876;BME280;40764;48.472;8.166;2023-02-17T14:28:51;99160.94;;;12.47;82.56
54876;BME280;40764;48.472;8.166;2023-02-17T14:34:52;99168.13;;;12.71;81.70
54876;BME280;40764;48.472;8.166;2023-02-17T14:40:53;99168.84;;;12.87;80.23
54876;BME280;40764;48.472;8.166;2023-02-17T14:46:54;99155.81;;;13.03;80.55
54876;BME280;40764;48.472;8.166;2023-02-17T14:52:55;99142.34;;;13.07;80.92
54876;BME280;40764;48.472;8.166;2023-02-17T14:58:55;99131.13;;;13.03;80.09
54876;BME280;40764;48.472;8.166;2023-02-17T15:04:56;99127.81;;;13.06;80.08
54876;BME280;40764;48.472;8.166;2023-02-17T15:10:56;99131.25;;;13.17;79.72
54876;BME280;40764;48.472;8.166;2023-02-17T15:16:56;99107.28;;;13.27;79.34
54876;BME280;40764;48.472;8.166;2023-02-17T15:22:57;99119.00;;;13.09;79.81
54876;BME280;40764;48.472;8.166;2023-02-17T15:28:58;99116.78;;;13.11;79.65
54876;BME280;40764;48.472;8.166;2023-02-17T15:34:58;99127.06;;;12.95;79.65
54876;BME280;40764;48.472;8.166;2023-02-17T15:40:58;99126.09;;;12.81;80.48
54876;BME280;40764;48.472;8.166;2023-02-17T15:46:59;99119.09;;;12.65;81.36
54876;BME280;40764;48.472;8.166;2023-02-17T15:53:17;99113.13;;;12.58;81.19
54876;BME280;40764;48.472;8.166;2023-02-17T15:59:28;99098.63;;;12.52;81.61
54876;BME280;40764;48.472;8.166;2023-02-17T16:05:29;99102.53;;;12.46;81.92
54876;BME280;40764;48.472;8.166;2023-02-17T16:11:29;99102.00;;;12.44;82.18
54876;BME280;40764;48.472;8.166;2023-02-17T16:17:30;99105.38;;;12.31;83.35
54876;BME280;40764;48.472;8.166;2023-02-17T16:23:31;99120.47;;;12.28;82.92
54876;BME280;40764;48.472;8.166;2023-02-17T16:29:40;99114.19;;;12.23;83.39
54876;BME280;40764;48.472;8.166;2023-02-17T16:35:41;99114.78;;;12.20;83.44
54876;BME280;40764;48.472;8.166;2023-02-17T16:41:47;99127.41;;;12.10;84.32
54876;BME280;40764;48.472;8.166;2023-02-17T16:47:53;99123.56;;;12.12;84.23
54876;BME280;40764;48.472;8.166;2023-02-17T16:53:54;99140.53;;;12.19;83.62
54876;BME280;40764;48.472;8.166;2023-02-17T16:59:55;99146.84;;;12.19;83.57
54876;BME280;40764;48.472;8.166;2023-02-17T17:05:55;99152.84;;;12.21;83.30
54876;BME280;40764;48.472;8.166;2023-02-17T17:11:56;99164.09;;;12.20;83.32
54876;BME280;40764;48.472;8.166;2023-02-17T17:17:59;99173.50;;;12.03;84.36
54876;BME280;40764;48.472;8.166;2023-02-17T17:23:59;99191.31;;;12.01;84.64
54876;BME280;40764;48.472;8.166;2023-02-17T17:30:15;99191.88;;;11.98;85.17
54876;BME280;40764;48.472;8.166;2023-02-17T17:36:29;99204.19;;;12.00;85.39
54876;BME280;40764;48.472;8.166;2023-02-17T17:42:31;99202.34;;;11.86;85.74
54876;BME280;40764;48.472;8.166;2023-02-17T17:48:31;99202.34;;;11.86;86.03
54876;BME280;40764;48.472;8.166;2023-02-17T17:54:31;99212.47;;;11.85;85.77
54876;BME280;40764;48.472;8.166;2023-02-17T18:00:32;99220.69;;;11.80;86.06
54876;BME280;40764;48.472;8.166;2023-02-17T18:06:41;99222.34;;;11.76;86.63
54876;BME280;40764;48.472;8.166;2023-02-17T18:12:43;99233.28;;;11.81;86.45
54876;BME280;40764;48.472;8.166;2023-02-17T18:18:45;99232.47;;;11.75;86.79
54876;BME280;40764;48.472;8.166;2023-02-17T18:24:45;99244.81;;;11.78;86.96
54876;BME280;40764;48.472;8.166;2023-02-17T18:30:46;99245.91;;;11.72;86.96
54876;BME280;40764;48.472;8.166;2023-02-17T18:36:47;99245.63;;;11.73;86.84
54876;BME280;40764;48.472;8.166;2023-02-17T18:42:47;99249.75;;;11.56;87.91
54876;BME280;40764;48.472;8.166;2023-02-17T18:48:48;99253.06;;;11.58;88.45
54876;BME280;40764;48.472;8.166;2023-02-17T18:54:49;99253.59;;;11.60;88.26
54876;BME280;40764;48.472;8.166;2023-02-17T19:00:49;99264.00;;;11.58;88.55
54876;BME280;40764;48.472;8.166;2023-02-17T19:07:04;99278.78;;;11.52;89.19
54876;BME280;40764;48.472;8.166;2023-02-17T19:13:06;99282.06;;;11.54;89.05
54876;BME280;40764;48.472;8.166;2023-02-17T19:19:06;99291.09;;;11.54;89.68
54876;BME280;40764;48.472;8.166;2023-02-17T19:25:07;99293.03;;;11.59;88.94
54876;BME280;40764;48.472;8.166;2023-02-17T19:31:12;99296.88;;;11.58;89.52
54876;BME280;40764;48.472;8.166;2023-02-17T19:37:14;99286.72;;;11.53;89.65
54876;BME280;40764;48.472;8.166;2023-02-17T19:43:14;99293.56;;;11.56;89.75
54876;BME280;40764;48.472;8.166;2023-02-17T19:49:16;99291.09;;;11.54;90.04
54876;BME280;40764;48.472;8.166;2023-02-17T19:55:20;99303.69;;;11.55;90.00
54876;BME280;40764;48.472;8.166;2023-02-17T20:01:27;99308.06;;;11.56;90.15
54876;BME280;40764;48.472;8.166;2023-02-17T20:07:28;99312.75;;;11.61;89.71
54876;BME280;40764;48.472;8.166;2023-02-17T20:13:29;99321.22;;;11.54;90.16
54876;BME280;40764;48.472;8.166;2023-02-17T20:19:29;99330.53;;;11.48;90.59
54876;BME280;40764;48.472;8.166;2023-02-17T20:25:30;99334.91;;;11.54;90.48
54876;BME280;40764;48.472;8.166;2023-02-17T20:31:30;99341.75;;;11.52;91.03
54876;BME280;40764;48.472;8.166;2023-02-17T20:37:31;99339.28;;;11.50;91.17
54876;BME280;40764;48.472;8.166;2023-02-17T20:43:32;99345.06;;;11.48;91.42
54876;BME280;40764;48.472;8.166;2023-02-17T20:49:33;99359.00;;;11.47;91.34
54876;BME280;40764;48.472;8.166;2023-02-17T20:55:33;99359.28;;;11.45;91.82
54876;BME280;40764;48.472;8.166;2023-02-17T21:01:35;99357.09;;;11.42;91.94
54876;BME280;40764;48.472;8.166;2023-02-17T21:07:36;99360.13;;;11.36;92.86
54876;BME280;40764;48.472;8.166;2023-02-17T21:13:37;99360.94;;;11.36;93.09
54876;BME280;40764;48.472;8.166;2023-02-17T21:19:37;99349.72;;;11.33;93.35
54876;BME280;40764;48.472;8.166;2023-02-17T21:25:39;99347.25;;;11.31;93.14
54876;BME280;40764;48.472;8.166;2023-02-17T21:31:40;99341.50;;;11.38;92.03
54876;BME280;40764;48.472;8.166;2023-02-17T21:37:40;99336.28;;;11.41;91.58
54876;BME280;40764;48.472;8.166;2023-02-17T21:43:41;99344.78;;;11.50;90.72
54876;BME280;40764;48.472;8.166;2023-02-17T21:50:00;99328.34;;;11.45;91.19
54876;BME280;40764;48.472;8.166;2023-02-17T21:56:01;99346.69;;;11.39;91.49
54876;BME280;40764;48.472;8.166;2023-02-17T22:02:01;99339.03;;;11.31;92.33
54876;BME280;40764;48.472;8.166;2023-02-17T22:08:02;99349.94;;;11.26;92.74
54876;BME280;40764;48.472;8.166;2023-02-17T22:14:05;99343.94;;;11.19;93.92
54876;BME280;40764;48.472;8.166;2023-02-17T22:20:09;99341.47;;;11.17;93.71
54876;BME280;40764;48.472;8.166;2023-02-17T22:26:17;99331.88;;;11.10;94.62
54876;BME280;40764;48.472;8.166;2023-02-17T22:32:18;99322.84;;;10.99;95.83
54876;BME280;40764;48.472;8.166;2023-02-17T22:38:18;99321.44;;;10.86;96.67
54876;BME280;40764;48.472;8.166;2023-02-17T22:44:18;99319.81;;;10.91;96.70
54876;BME280;40764;48.472;8.166;2023-02-17T22:50:18;99310.50;;;10.92;96.62
54876;BME280;40764;48.472;8.166;2023-02-17T22:56:20;99319.03;;;11.00;95.75
54876;BME280;40764;48.472;8.166;2023-02-17T23:02:20;99310.25;;;11.03;95.22
54876;BME280;40764;48.472;8.166;2023-02-17T23:08:21;99312.47;;;11.01;95.70
54876;BME280;40764;48.472;8.166;2023-02-17T23:14:23;99307.53;;;11.08;95.57
54876;BME280;40764;48.472;8.166;2023-02-17T23:20:24;99298.50;;;11.08;95.53
54876;BME280;40764;48.472;8.166;2023-02-17T23:26:24;99305.91;;;11.12;95.45
54876;BME280;40764;48.472;8.166;2023-02-17T23:32:25;99308.09;;;11.15;95.36
54876;BME280;40764;48.472;8.166;2023-02-17T23:38:25;99311.91;;;11.14;95.06
54876;BME280;40764;48.472;8.166;2023-02-17T23:44:25;99311.09;;;11.19;94.93
54876;BME280;40764;48.472;8.166;2023-02-17T23:50:26;99315.75;;;11.24;94.52
54876;BME280;40764;48.472;8.166;2023-02-17T23:56:34;99292.75;;;11.25;93.67
